Time;durP1;ratioP1;P1;durP2;ratioP2;P2;SDS_P1;SDS_P2;PMS_P1;PMS_P2;Temp;Humidity;BMP_temperature;BMP_pressure;BME280_temperature;BME280_humidity;BME280_pressure;Samples;Min_cycle;Max_cycle;Signal;HPM_P1;HPM_P2
2023/03/20 00:00:58;;;;;;;21.38;8.50;;;7.90;99.90;;;;;;5107845;27;20035;-67
2023/03/20 00:03:23;;;;;;;27.05;9.02;;;7.90;99.90;;;;;;5107562;27;20378;-68
2023/03/20 00:05:50;;;;;;;24.92;9.13;;;7.80;99.90;;;;;;5107440;28;20393;-68
2023/03/20 00:08:16;;;;;;;21.92;9.18;;;7.90;99.90;;;;;;5107004;27;20043;-67
2023/03/20 00:10:43;;;;;;;32.83;9.40;;;7.80;99.90;;;;;;5109482;27;20024;-67
2023/03/20 00:13:36;;;;;;;28.85;10.02;;;7.80;99.90;;;;;;5106010;27;20039;-67
2023/03/20 00:16:01;;;;;;;25.77;9.32;;;7.90;99.90;;;;;;5105379;27;20070;-67
2023/03/20 00:18:28;;;;;;;26.73;10.30;;;7.90;99.90;;;;;;5105575;27;20039;-67
2023/03/20 00:20:53;;;;;;;27.00;9.70;;;7.90;99.90;;;;;;5109700;28;20162;-66
2023/03/20 00:23:19;;;;;;;24.00;8.75;;;7.90;99.90;;;;;;5108764;28;20043;-67
2023/03/20 00:25:46;;;;;;;24.38;9.45;;;7.80;99.90;;;;;;5117805;27;20420;-67
2023/03/20 00:28:28;;;;;;;25.85;9.40;;;7.80;99.90;;;;;;5117401;27;20122;-67
2023/03/20 00:30:54;;;;;;;21.92;9.20;;;7.80;99.90;;;;;;5119833;27;20050;-67
2023/03/20 00:33:19;;;;;;;26.15;9.30;;;7.90;99.90;;;;;;5115647;27;20397;-67
2023/03/20 00:35:45;;;;;;;26.23;8.95;;;7.90;99.90;;;;;;5110081;27;20043;-67
2023/03/20 00:38:11;;;;;;;20.23;8.85;;;7.80;99.90;;;;;;5117190;27;20035;-67
2023/03/20 00:40:36;;;;;;;21.63;8.88;;;7.80;99.90;;;;;;5109109;27;20087;-67
2023/03/20 00:43:03;;;;;;;25.73;9.43;;;7.80;99.90;;;;;;5109547;27;20042;-67
2023/03/20 00:45:31;;;;;;;21.67;9.07;;;7.80;99.90;;;;;;5109965;27;20075;-66
2023/03/20 00:47:57;;;;;;;30.83;10.18;;;7.90;99.90;;;;;;5111878;27;20043;-67
2023/03/20 00:50:28;;;;;;;22.02;8.77;;;7.80;99.90;;;;;;5116903;27;20546;-67
2023/03/20 00:52:54;;;;;;;25.23;8.93;;;7.90;99.90;;;;;;5105261;27;20050;-67
2023/03/20 00:55:22;;;;;;;26.90;9.15;;;7.90;99.90;;;;;;5113120;27;20053;-67
2023/03/20 00:57:57;;;;;;;26.98;8.52;;;7.80;99.90;;;;;;5105766;27;20435;-67
2023/03/20 01:00:41;;;;;;;23.33;8.18;;;7.70;99.90;;;;;;5115336;27;20081;-67
2023/03/20 01:03:20;;;;;;;23.65;8.18;;;7.70;99.90;;;;;;5104549;27;20378;-67
2023/03/20 01:05:46;;;;;;;25.73;8.32;;;7.80;99.90;;;;;;5116171;27;20429;-66
2023/03/20 01:08:20;;;;;;;21.33;8.45;;;7.80;99.90;;;;;;5116510;27;20039;-67
2023/03/20 01:10:49;;;;;;;25.50;8.95;;;7.70;99.90;;;;;;5115859;27;20220;-67
2023/03/20 01:13:26;;;;;;;22.15;8.63;;;7.80;99.90;;;;;;5112203;27;20039;-67
2023/03/20 01:15:53;;;;;;;21.45;8.07;;;7.70;99.90;;;;;;5116957;27;20045;-67
2023/03/20 01:18:21;;;;;;;18.65;7.90;;;7.70;99.90;;;;;;5100303;27;20038;-67
2023/03/20 01:20:47;;;;;;;31.27;9.05;;;7.80;99.90;;;;;;5119186;27;20035;-66
2023/03/20 01:23:13;;;;;;;24.50;8.70;;;7.70;99.90;;;;;;5113518;27;20075;-67
2023/03/20 01:25:39;;;;;;;26.08;9.10;;;7.70;99.90;;;;;;5108969;27;20389;-67
2023/03/20 01:28:15;;;;;;;25.13;9.35;;;7.70;99.90;;;;;;5103984;27;20031;-67
2023/03/20 01:30:42;;;;;;;28.27;10.75;;;7.80;99.90;;;;;;5112746;27;20101;-67
2023/03/20 01:33:20;;;;;;;34.88;12.02;;;7.70;99.90;;;;;;5093156;27;20401;-67
2023/03/20 01:35:47;;;;;;;39.78;13.75;;;7.80;99.90;;;;;;5108872;27;20035;-68
2023/03/20 01:38:14;;;;;;;30.15;12.10;;;7.70;99.90;;;;;;5102439;27;20039;-67
2023/03/20 01:40:46;;;;;;;42.90;14.27;;;7.80;99.90;;;;;;5101543;28;20035;-66
2023/03/20 01:43:15;;;;;;;39.10;13.95;;;7.70;99.90;;;;;;5105680;27;20050;-67
2023/03/20 01:46:06;;;;;;;38.60;14.18;;;7.80;99.90;;;;;;5131064;27;20577;-67
2023/03/20 01:48:52;;;;;;;35.65;13.20;;;7.80;99.90;;;;;;5067198;28;20047;-67
2023/03/20 01:51:28;;;;;;;35.63;14.63;;;7.80;99.90;;;;;;5103128;27;20031;-66
2023/03/20 01:53:56;;;;;;;39.55;14.40;;;7.80;99.90;;;;;;5108253;27;20398;-67
2023/03/20 01:56:21;;;;;;;36.05;14.90;;;7.80;99.90;;;;;;5114191;27;20101;-67
2023/03/20 01:58:59;;;;;;;36.08;14.70;;;7.70;99.90;;;;;;5111479;27;20485;-67
2023/03/20 02:01:26;;;;;;;35.45;14.43;;;7.80;99.90;;;;;;5090654;27;20402;-67
2023/03/20 02:03:52;;;;;;;34.67;14.40;;;7.80;99.90;;;;;;5107190;27;20042;-67
2023/03/20 02:06:22;;;;;;;36.08;14.55;;;7.80;99.90;;;;;;5111467;27;20051;-67
2023/03/20 02:08:49;;;;;;;35.72;13.98;;;7.80;99.90;;;;;;5105786;27;20111;-66
2023/03/20 02:11:18;;;;;;;36.85;15.25;;;7.80;99.90;;;;;;5103281;27;20071;-67
2023/03/20 02:13:46;;;;;;;36.90;13.80;;;7.70;99.90;;;;;;5110526;27;20042;-67
2023/03/20 02:16:16;;;;;;;33.10;14.27;;;7.70;99.90;;;;;;5106543;27;20043;-67
2023/03/20 02:18:48;;;;;;;40.15;14.45;;;7.70;99.90;;;;;;5105817;28;20107;-67
2023/03/20 02:21:25;;;;;;;34.78;13.43;;;7.70;99.90;;;;;;5105276;27;20115;-67
2023/03/20 02:23:54;;;;;;;30.90;13.63;;;7.80;99.90;;;;;;5094845;27;20091;-67
2023/03/20 02:26:37;;;;;;;30.60;13.45;;;7.70;99.90;;;;;;5111461;27;20038;-67
2023/03/20 02:29:53;;;;;;;38.80;14.27;;;7.70;99.90;;;;;;5111722;27;20043;-66
2023/03/20 02:32:37;;;;;;;38.50;14.45;;;7.70;99.90;;;;;;5047510;28;20078;-67
2023/03/20 02:35:22;;;;;;;38.75;14.25;;;7.70;99.90;;;;;;5101985;27;20072;-67
2023/03/20 02:38:08;;;;;;;35.17;14.55;;;7.80;99.90;;;;;;5112516;27;20438;-66
2023/03/20 02:40:52;;;;;;;37.50;13.77;;;7.80;99.90;;;;;;5107805;27;20807;-67
2023/03/20 02:43:26;;;;;;;36.85;13.32;;;7.80;99.90;;;;;;5108823;27;20062;-67
2023/03/20 02:46:02;;;;;;;34.30;13.70;;;7.70;99.90;;;;;;5107953;27;20031;-67
2023/03/20 02:48:53;;;;;;;32.95;13.23;;;7.70;99.90;;;;;;5104552;27;20046;-67
2023/03/20 02:51:34;;;;;;;33.20;13.73;;;7.80;99.90;;;;;;5105270;27;20049;-67
2023/03/20 02:54:22;;;;;;;34.60;13.07;;;7.70;99.90;;;;;;5120357;27;20043;-67
2023/03/20 02:57:19;;;;;;;33.50;12.90;;;7.80;99.90;;;;;;5106891;27;20055;-67
2023/03/20 03:00:00;;;;;;;30.77;12.23;;;7.70;99.90;;;;;;5102044;27;20050;-66
2023/03/20 03:02:35;;;;;;;27.75;12.02;;;7.80;99.90;;;;;;5099458;27;20121;-67
2023/03/20 03:05:06;;;;;;;28.10;11.75;;;7.70;99.90;;;;;;5105097;27;20150;-67
2023/03/20 03:07:34;;;;;;;29.92;11.05;;;7.80;99.90;;;;;;5122982;27;20096;-67
2023/03/20 03:10:06;;;;;;;25.40;10.60;;;7.80;99.90;;;;;;5099659;27;20065;-67
2023/03/20 03:12:40;;;;;;;25.58;10.32;;;7.80;99.90;;;;;;5111255;27;20046;-66
2023/03/20 03:15:22;;;;;;;25.85;10.00;;;7.80;99.90;;;;;;5108728;27;20119;-67
2023/03/20 03:17:48;;;;;;;26.42;9.98;;;7.80;99.90;;;;;;5110790;27;20126;-67
2023/03/20 03:20:25;;;;;;;22.60;9.15;;;7.70;99.90;;;;;;5112003;27;20043;-67
2023/03/20 03:22:51;;;;;;;21.65;9.52;;;7.70;99.90;;;;;;5111833;27;20050;-67
2023/03/20 03:25:17;;;;;;;24.58;8.57;;;7.70;99.90;;;;;;5120338;27;20421;-67
2023/03/20 03:27:46;;;;;;;20.77;8.95;;;7.70;99.90;;;;;;5092798;27;20508;-66
2023/03/20 03:30:21;;;;;;;20.50;8.38;;;7.70;99.90;;;;;;5108952;28;20437;-67
2023/03/20 03:33:08;;;;;;;26.27;9.05;;;7.80;99.90;;;;;;5112925;27;20039;-67
2023/03/20 03:35:34;;;;;;;19.58;8.52;;;7.80;99.90;;;;;;5110778;27;20068;-67
2023/03/20 03:38:19;;;;;;;23.75;9.05;;;7.70;99.90;;;;;;5111968;27;20060;-66
2023/03/20 03:41:05;;;;;;;21.10;9.18;;;7.70;99.90;;;;;;5107584;27;20157;-67
2023/03/20 03:43:41;;;;;;;25.98;8.30;;;7.70;99.90;;;;;;5113500;27;20494;-67
2023/03/20 03:46:15;;;;;;;25.33;8.82;;;7.70;99.90;;;;;;5108948;27;20035;-67
2023/03/20 03:48:51;;;;;;;20.73;8.82;;;7.70;99.90;;;;;;5105220;27;20088;-67
2023/03/20 03:51:21;;;;;;;22.15;8.20;;;7.70;99.90;;;;;;5104377;27;20047;-67
2023/03/20 03:54:00;;;;;;;18.60;8.48;;;7.70;99.90;;;;;;5105131;27;20039;-67
2023/03/20 03:56:30;;;;;;;23.15;8.25;;;7.70;99.90;;;;;;5106027;27;20050;-67
2023/03/20 03:59:02;;;;;;;22.15;8.55;;;7.70;99.90;;;;;;5103124;27;20044;-66
2023/03/20 04:01:31;;;;;;;17.08;7.97;;;7.70;99.90;;;;;;5101315;27;20040;-67
2023/03/20 04:04:01;;;;;;;22.10;9.07;;;7.60;99.90;;;;;;5103620;27;20046;-66
2023/03/20 04:06:27;;;;;;;20.40;8.30;;;7.60;99.90;;;;;;5109282;27;20122;-67
2023/03/20 04:08:53;;;;;;;17.95;8.30;;;7.50;99.90;;;;;;5105963;27;20118;-67
2023/03/20 04:11:21;;;;;;;20.92;8.63;;;7.50;99.90;;;;;;5096890;27;20044;-66
2023/03/20 04:13:48;;;;;;;22.38;9.07;;;7.50;99.90;;;;;;5105701;28;20118;-67
2023/03/20 04:16:15;;;;;;;19.38;9.20;;;7.50;99.90;;;;;;5103069;27;20043;-66
2023/03/20 04:18:41;;;;;;;22.73;10.00;;;7.50;99.90;;;;;;5109635;27;20168;-67
2023/03/20 04:21:08;;;;;;;27.95;10.40;;;7.50;99.90;;;;;;5109652;28;20473;-66
2023/03/20 04:23:34;;;;;;;27.30;10.13;;;7.50;99.90;;;;;;5101859;28;20126;-66
2023/03/20 04:26:00;;;;;;;28.67;10.10;;;7.50;99.90;;;;;;5110547;28;20040;-67
2023/03/20 04:28:26;;;;;;;26.83;10.65;;;7.40;99.90;;;;;;5100720;28;20554;-67
2023/03/20 04:30:53;;;;;;;25.73;9.45;;;7.50;99.90;;;;;;5111733;28;20117;-68
2023/03/20 04:33:18;;;;;;;24.77;10.85;;;7.50;99.90;;;;;;5108784;28;20050;-67
2023/03/20 04:35:44;;;;;;;26.92;10.98;;;7.50;99.90;;;;;;5110198;28;20046;-67
2023/03/20 04:38:10;;;;;;;29.55;11.13;;;7.50;99.90;;;;;;5100696;28;20370;-67
2023/03/20 04:40:36;;;;;;;27.42;11.38;;;7.40;99.90;;;;;;5108838;28;20120;-67
2023/03/20 04:43:01;;;;;;;26.90;11.02;;;7.50;99.90;;;;;;5102815;28;20040;-67
2023/03/20 04:45:27;;;;;;;31.10;11.15;;;7.40;99.90;;;;;;5105193;27;20050;-66
2023/03/20 04:47:53;;;;;;;28.58;11.80;;;7.40;99.90;;;;;;5101573;28;20114;-67
2023/03/20 04:50:20;;;;;;;26.67;12.18;;;7.40;99.90;;;;;;5105510;28;20040;-67
2023/03/20 04:52:46;;;;;;;27.30;11.60;;;7.40;99.90;;;;;;5111054;27;20238;-66
2023/03/20 04:55:11;;;;;;;29.70;12.45;;;7.40;99.90;;;;;;5103027;28;20482;-67
2023/03/20 04:57:37;;;;;;;29.67;11.88;;;7.30;99.90;;;;;;5111969;28;20085;-67
2023/03/20 05:00:04;;;;;;;27.52;12.63;;;7.40;99.90;;;;;;5110948;28;20074;-66
2023/03/20 05:02:29;;;;;;;28.83;12.13;;;7.30;99.90;;;;;;5105893;28;20516;-67
2023/03/20 05:04:55;;;;;;;24.67;11.90;;;7.30;99.90;;;;;;5109501;28;20027;-67
2023/03/20 05:07:21;;;;;;;28.92;12.30;;;7.30;99.90;;;;;;5101541;28;20122;-67
2023/03/20 05:09:47;;;;;;;28.30;12.75;;;7.40;99.90;;;;;;5104878;27;20039;-68
2023/03/20 05:12:13;;;;;;;25.88;12.55;;;7.30;99.90;;;;;;5126870;27;20035;-66
2023/03/20 05:14:38;;;;;;;30.17;12.20;;;7.40;99.90;;;;;;5110842;27;20296;-67
2023/03/20 05:17:04;;;;;;;23.73;11.77;;;7.30;99.90;;;;;;5104395;27;20035;-66
2023/03/20 05:19:29;;;;;;;24.65;12.10;;;7.30;99.90;;;;;;5111286;27;20044;-66
2023/03/20 05:21:55;;;;;;;27.92;12.57;;;7.40;99.90;;;;;;5112652;27;20082;-67
2023/03/20 05:24:21;;;;;;;24.17;12.07;;;7.30;99.90;;;;;;5109269;27;20122;-66
2023/03/20 05:26:46;;;;;;;30.00;12.73;;;7.40;99.90;;;;;;5111070;27;20397;-66
2023/03/20 05:29:12;;;;;;;24.45;11.27;;;7.40;99.90;;;;;;5104171;27;20030;-66
2023/03/20 05:31:38;;;;;;;26.67;11.63;;;7.40;99.90;;;;;;5108502;27;20423;-67
2023/03/20 05:34:04;;;;;;;22.80;11.20;;;7.40;99.90;;;;;;5105775;27;20046;-67
2023/03/20 05:36:30;;;;;;;26.58;11.85;;;7.40;99.90;;;;;;5109558;27;20043;-66
2023/03/20 05:38:56;;;;;;;28.20;11.68;;;7.40;99.90;;;;;;5105955;27;20128;-66
2023/03/20 05:41:22;;;;;;;25.60;11.43;;;7.40;99.90;;;;;;5102048;27;20035;-66
2023/03/20 05:43:47;;;;;;;24.92;11.70;;;7.30;99.90;;;;;;5106587;27;20354;-66
2023/03/20 05:46:13;;;;;;;26.67;11.88;;;7.40;99.90;;;;;;5109389;27;20084;-66
2023/03/20 05:48:39;;;;;;;25.70;11.75;;;7.40;99.90;;;;;;5106341;27;20621;-67
2023/03/20 05:51:05;;;;;;;26.80;11.88;;;7.40;99.90;;;;;;5106451;27;20526;-66
2023/03/20 05:53:30;;;;;;;23.88;11.40;;;7.40;99.90;;;;;;5108431;27;20039;-66
2023/03/20 05:55:56;;;;;;;24.10;12.23;;;7.30;99.90;;;;;;5126989;27;20047;-66
2023/03/20 05:58:21;;;;;;;24.02;11.05;;;7.40;99.90;;;;;;5102449;27;20111;-67
2023/03/20 06:00:47;;;;;;;29.15;11.80;;;7.40;99.90;;;;;;5107536;28;20040;-66
2023/03/20 06:03:12;;;;;;;26.90;11.80;;;7.40;99.90;;;;;;5112395;27;20130;-66
2023/03/20 06:05:38;;;;;;;24.25;10.73;;;7.40;99.90;;;;;;5109696;27;20119;-66
2023/03/20 06:08:04;;;;;;;23.48;11.57;;;7.40;99.90;;;;;;5109138;27;20179;-66
2023/03/20 06:10:30;;;;;;;25.50;12.05;;;7.40;99.90;;;;;;5106760;27;20359;-66
2023/03/20 06:12:57;;;;;;;28.52;12.50;;;7.40;99.90;;;;;;5101230;27;20046;-67
2023/03/20 06:15:23;;;;;;;26.23;11.57;;;7.40;99.90;;;;;;5109409;27;20054;-66
2023/03/20 06:17:48;;;;;;;31.48;12.10;;;7.50;99.90;;;;;;5107479;27;20043;-66
2023/03/20 06:20:15;;;;;;;27.33;11.57;;;7.50;99.90;;;;;;5107695;27;20432;-68
2023/03/20 06:22:40;;;;;;;25.08;11.80;;;7.50;99.90;;;;;;5088853;27;20066;-66
2023/03/20 06:25:06;;;;;;;27.55;12.65;;;7.50;99.90;;;;;;5101663;27;20044;-66
2023/03/20 06:27:32;;;;;;;25.73;12.27;;;7.50;99.90;;;;;;5102853;27;20039;-66
2023/03/20 06:29:57;;;;;;;27.33;12.57;;;7.50;99.90;;;;;;5103446;27;20039;-67
2023/03/20 06:32:23;;;;;;;28.10;11.93;;;7.50;99.90;;;;;;5103540;27;20035;-66
2023/03/20 06:34:49;;;;;;;29.65;13.15;;;7.50;99.90;;;;;;5102154;27;20117;-66
2023/03/20 06:37:14;;;;;;;26.65;12.45;;;7.60;99.90;;;;;;5103890;27;20051;-66
2023/03/20 06:39:40;;;;;;;30.48;12.85;;;7.50;99.90;;;;;;5102977;27;20041;-66
2023/03/20 06:42:06;;;;;;;26.58;13.02;;;7.50;99.90;;;;;;5104650;27;20732;-65
2023/03/20 06:44:31;;;;;;;30.73;12.77;;;7.60;99.90;;;;;;5107783;27;20031;-66
2023/03/20 06:46:57;;;;;;;34.65;12.43;;;7.60;99.90;;;;;;5125192;27;20039;-67
2023/03/20 06:49:22;;;;;;;36.40;12.70;;;7.60;99.90;;;;;;5099974;27;20478;-66
2023/03/20 06:51:48;;;;;;;31.80;13.48;;;7.60;99.90;;;;;;5105616;27;20055;-66
2023/03/20 06:54:13;;;;;;;29.85;13.18;;;7.60;99.90;;;;;;5089095;27;20887;-66
2023/03/20 06:56:39;;;;;;;33.65;13.43;;;7.60;99.90;;;;;;5109202;27;20070;-66
2023/03/20 06:59:05;;;;;;;29.73;13.90;;;7.70;99.90;;;;;;5103335;27;20065;-67
2023/03/20 07:01:30;;;;;;;29.25;13.95;;;7.70;99.90;;;;;;5108414;27;20043;-66
2023/03/20 07:03:56;;;;;;;30.65;13.68;;;7.70;99.90;;;;;;5106042;27;20055;-66
2023/03/20 07:06:22;;;;;;;31.00;13.45;;;7.70;99.90;;;;;;5102303;27;20046;-67
2023/03/20 07:08:47;;;;;;;29.75;13.52;;;7.70;99.90;;;;;;5082686;27;20062;-67
2023/03/20 07:11:13;;;;;;;29.98;13.82;;;7.80;99.90;;;;;;5103315;27;20031;-66
2023/03/20 07:13:39;;;;;;;31.55;13.93;;;7.80;99.90;;;;;;5104465;27;20504;-65
2023/03/20 07:16:05;;;;;;;31.02;13.60;;;7.80;99.90;;;;;;5121768;27;20521;-66
2023/03/20 07:18:31;;;;;;;31.48;14.05;;;7.80;99.90;;;;;;5106752;27;20039;-65
2023/03/20 07:21:01;;;;;;;28.38;13.63;;;7.80;99.90;;;;;;5103973;27;20084;-65
2023/03/20 07:23:27;;;;;;;30.50;14.05;;;7.80;99.90;;;;;;5104689;27;20046;-66
2023/03/20 07:25:52;;;;;;;30.42;13.10;;;7.80;99.90;;;;;;5111474;27;20027;-65
2023/03/20 07:28:18;;;;;;;28.40;13.95;;;7.90;99.90;;;;;;5111062;27;20062;-66
2023/03/20 07:30:43;;;;;;;34.53;13.93;;;7.90;99.90;;;;;;5096289;28;20126;-66
2023/03/20 07:33:09;;;;;;;35.08;14.82;;;7.90;99.90;;;;;;5107934;27;20062;-65
2023/03/20 07:35:34;;;;;;;31.45;13.63;;;7.90;99.90;;;;;;5130331;27;20031;-66
2023/03/20 07:38:00;;;;;;;28.80;14.30;;;7.90;99.90;;;;;;5111151;27;20042;-66
2023/03/20 07:40:26;;;;;;;28.67;14.07;;;8.00;99.90;;;;;;5110631;27;20043;-66
2023/03/20 07:42:51;;;;;;;29.77;14.18;;;8.00;99.90;;;;;;5097493;27;20078;-66
2023/03/20 07:45:17;;;;;;;33.65;15.38;;;8.00;99.90;;;;;;5093099;28;20027;-66
2023/03/20 07:47:44;;;;;;;32.90;14.10;;;8.10;99.90;;;;;;5094289;27;20035;-67
2023/03/20 07:50:10;;;;;;;29.55;14.25;;;8.10;99.90;;;;;;5109573;27;20083;-65
2023/03/20 07:52:36;;;;;;;31.88;14.88;;;8.10;99.90;;;;;;5108312;28;20039;-66
2023/03/20 07:55:01;;;;;;;30.30;15.00;;;8.20;99.90;;;;;;5092816;27;20043;-66
2023/03/20 07:57:27;;;;;;;31.15;15.65;;;8.20;99.90;;;;;;5108696;27;20043;-66
2023/03/20 07:59:52;;;;;;;27.70;15.52;;;8.30;99.90;;;;;;5094393;27;20042;-66
2023/03/20 08:02:18;;;;;;;31.05;14.90;;;8.20;99.90;;;;;;5130446;27;20042;-66
2023/03/20 08:04:45;;;;;;;32.70;15.48;;;8.30;99.90;;;;;;5099691;27;20139;-66
2023/03/20 08:07:10;;;;;;;36.08;15.88;;;8.30;99.90;;;;;;5111473;27;20054;-66
2023/03/20 08:09:36;;;;;;;34.15;15.68;;;8.40;99.90;;;;;;5106176;27;20040;-66
2023/03/20 08:12:03;;;;;;;33.35;16.02;;;8.40;99.90;;;;;;5093724;27;20122;-66
2023/03/20 08:14:29;;;;;;;31.00;15.50;;;8.50;99.90;;;;;;5107120;28;20433;-66
2023/03/20 08:16:54;;;;;;;31.80;16.42;;;8.50;99.90;;;;;;5113267;28;20039;-66
2023/03/20 08:19:20;;;;;;;31.23;15.50;;;8.60;99.90;;;;;;5102549;28;20119;-66
2023/03/20 08:21:46;;;;;;;34.38;16.30;;;8.60;99.90;;;;;;5091814;28;20039;-66
2023/03/20 08:24:11;;;;;;;33.08;14.90;;;8.60;99.90;;;;;;5106910;28;20481;-65
2023/03/20 08:26:37;;;;;;;28.90;15.10;;;8.70;99.90;;;;;;5111798;28;20039;-65
2023/03/20 08:29:03;;;;;;;28.10;15.02;;;8.70;99.90;;;;;;5097170;28;20046;-66
2023/03/20 08:31:29;;;;;;;28.35;14.95;;;8.80;99.90;;;;;;5080708;27;20668;-66
2023/03/20 08:33:55;;;;;;;24.98;14.57;;;8.90;99.90;;;;;;5105344;27;20034;-65
2023/03/20 08:36:21;;;;;;;30.60;15.15;;;8.90;99.90;;;;;;5092079;28;20118;-65
2023/03/20 08:38:48;;;;;;;31.33;16.17;;;9.00;99.90;;;;;;5106822;28;20118;-66
2023/03/20 08:41:14;;;;;;;32.25;15.80;;;9.00;99.90;;;;;;5113024;28;20067;-66
2023/03/20 08:43:39;;;;;;;30.60;14.95;;;9.00;99.90;;;;;;5104195;28;20067;-66
2023/03/20 08:46:06;;;;;;;29.98;15.13;;;9.10;99.90;;;;;;5106259;28;20481;-65
2023/03/20 08:48:31;;;;;;;27.45;14.88;;;9.10;99.90;;;;;;5100927;27;20028;-66
2023/03/20 08:50:57;;;;;;;30.52;16.23;;;9.10;99.90;;;;;;5108954;27;20246;-65
2023/03/20 08:53:22;;;;;;;29.00;16.30;;;9.20;99.90;;;;;;5096453;27;20104;-66
2023/03/20 08:55:49;;;;;;;33.30;15.88;;;9.20;99.90;;;;;;5095949;27;20035;-66
2023/03/20 08:58:15;;;;;;;27.55;15.82;;;9.20;99.90;;;;;;5102502;27;20482;-66
2023/03/20 09:00:41;;;;;;;28.58;16.00;;;9.30;99.90;;;;;;5099111;27;20039;-68
2023/03/20 09:03:16;;;;;;;28.33;15.52;;;9.30;99.90;;;;;;5108704;27;20665;-66
2023/03/20 09:05:51;;;;;;;30.73;15.25;;;9.30;99.90;;;;;;5111741;27;20435;-66
2023/03/20 09:08:16;;;;;;;26.95;14.18;;;9.50;99.90;;;;;;5084102;27;20079;-66
2023/03/20 09:10:42;;;;;;;29.83;15.18;;;9.50;99.90;;;;;;5104903;27;20035;-66
2023/03/20 09:13:08;;;;;;;29.05;15.23;;;9.60;99.90;;;;;;5102436;27;20055;-67
2023/03/20 09:15:34;;;;;;;28.25;14.52;;;9.70;99.90;;;;;;5102290;27;20096;-67
2023/03/20 09:18:00;;;;;;;24.70;14.75;;;9.80;99.90;;;;;;5104692;27;20104;-67
2023/03/20 09:20:25;;;;;;;25.15;14.27;;;9.80;99.90;;;;;;5108000;28;20051;-66
2023/03/20 09:22:51;;;;;;;24.15;14.55;;;9.90;99.90;;;;;;5101347;27;20118;-66
2023/03/20 09:25:17;;;;;;;27.80;14.27;;;10.00;99.90;;;;;;5095705;28;20036;-67
2023/03/20 09:27:42;;;;;;;21.40;13.18;;;10.10;99.90;;;;;;5111043;27;20039;-67
2023/03/20 09:30:09;;;;;;;27.02;13.23;;;10.10;99.90;;;;;;5112073;27;20058;-67
2023/03/20 09:32:36;;;;;;;26.48;13.32;;;10.20;99.90;;;;;;5116205;27;20118;-68
2023/03/20 09:35:02;;;;;;;23.27;13.20;;;10.20;99.90;;;;;;5114116;27;20220;-68
2023/03/20 09:37:28;;;;;;;25.02;13.80;;;10.20;99.90;;;;;;5112187;27;20117;-67
2023/03/20 09:39:54;;;;;;;26.33;13.50;;;10.10;99.90;;;;;;5097617;27;20126;-67
2023/03/20 09:42:38;;;;;;;24.08;13.48;;;10.00;99.90;;;;;;5113930;27;20035;-68
2023/03/20 09:45:19;;;;;;;23.23;13.23;;;9.90;99.90;;;;;;5110870;27;20105;-67
2023/03/20 09:48:19;;;;;;;29.25;13.70;;;9.70;99.90;;;;;;5116764;27;20071;-67
2023/03/20 09:51:01;;;;;;;28.25;13.93;;;9.70;99.90;;;;;;5096156;28;20052;-69
2023/03/20 09:53:50;;;;;;;25.08;14.23;;;9.80;99.90;;;;;;5110183;27;20042;-67
2023/03/20 09:56:22;;;;;;;32.17;14.57;;;9.80;99.90;;;;;;5095242;28;20066;-66
2023/03/20 09:59:00;;;;;;;25.75;13.93;;;9.90;99.90;;;;;;5108266;27;20054;-68
2023/03/20 10:01:33;;;;;;;25.83;14.15;;;9.90;99.90;;;;;;5105691;27;20045;-67
2023/03/20 10:04:06;;;;;;;25.63;13.68;;;9.90;99.90;;;;;;5108287;27;20124;-66
2023/03/20 10:06:32;;;;;;;24.05;13.60;;;9.90;99.90;;;;;;5098530;27;20047;-66
2023/03/20 10:08:58;;;;;;;29.98;13.27;;;9.80;99.90;;;;;;5095673;27;20383;-66
2023/03/20 10:11:48;;;;;;;26.20;13.00;;;9.80;99.90;;;;;;5109559;27;20089;-67
2023/03/20 10:14:23;;;;;;;27.65;13.43;;;9.80;99.90;;;;;;5116526;27;20035;-70
2023/03/20 10:17:04;;;;;;;25.90;14.07;;;9.80;99.90;;;;;;5103596;27;20490;-67
2023/03/20 10:19:35;;;;;;;21.98;12.40;;;9.70;99.90;;;;;;5111179;27;20084;-66
2023/03/20 10:22:10;;;;;;;23.23;12.00;;;9.60;99.90;;;;;;5097091;27;20047;-67
2023/03/20 10:24:41;;;;;;;23.08;12.05;;;9.70;99.90;;;;;;5105238;27;20035;-69
2023/03/20 10:27:33;;;;;;;26.05;13.48;;;9.60;99.90;;;;;;5124069;27;20040;-68
2023/03/20 10:30:10;;;;;;;25.73;12.98;;;9.50;99.90;;;;;;5111251;27;20470;-69
2023/03/20 10:32:57;;;;;;;24.48;13.63;;;9.40;99.90;;;;;;5112577;27;20043;-67
2023/03/20 10:35:48;;;;;;;24.40;13.43;;;9.50;99.90;;;;;;5112769;27;20067;-68
2023/03/20 10:38:17;;;;;;;23.67;12.95;;;9.60;99.90;;;;;;5110849;27;20046;-67
2023/03/20 10:40:42;;;;;;;21.42;13.10;;;9.70;99.90;;;;;;5110860;27;20047;-67
2023/03/20 10:43:33;;;;;;;28.92;14.32;;;9.60;99.90;;;;;;5109022;27;20128;-66
2023/03/20 10:46:08;;;;;;;24.35;13.77;;;9.60;99.90;;;;;;5105448;27;20048;-66
2023/03/20 10:48:43;;;;;;;26.20;13.75;;;9.60;99.90;;;;;;5104648;27;20037;-68
2023/03/20 10:51:15;;;;;;;28.13;13.60;;;9.60;99.90;;;;;;5098967;27;20067;-68
2023/03/20 10:53:50;;;;;;;21.45;13.05;;;9.70;99.90;;;;;;5089906;28;20122;-68
2023/03/20 10:56:23;;;;;;;29.02;12.65;;;9.60;99.90;;;;;;5111133;27;20039;-67
2023/03/20 10:58:57;;;;;;;21.45;11.77;;;9.70;99.90;;;;;;5126486;27;20412;-68
2023/03/20 11:01:23;;;;;;;24.13;10.75;;;9.60;99.90;;;;;;5104335;27;20039;-65
2023/03/20 11:03:49;;;;;;;24.63;11.77;;;9.70;99.90;;;;;;5110917;27;20069;-67
2023/03/20 11:06:23;;;;;;;22.88;11.23;;;9.80;99.90;;;;;;5125347;27;20039;-68
2023/03/20 11:08:51;;;;;;;20.33;10.82;;;9.70;99.90;;;;;;5105303;27;20035;-67
2023/03/20 11:11:33;;;;;;;20.95;10.48;;;9.70;99.90;;;;;;5124004;27;20076;-68
2023/03/20 11:14:14;;;;;;;20.77;9.95;;;9.70;99.90;;;;;;5112337;27;20039;-68
2023/03/20 11:16:40;;;;;;;23.55;9.65;;;9.70;99.90;;;;;;5108230;27;20051;-67
2023/03/20 11:19:09;;;;;;;17.65;8.00;;;9.70;99.90;;;;;;5107522;27;20035;-69
2023/03/20 11:21:44;;;;;;;15.93;7.35;;;9.70;99.90;;;;;;5114455;27;20047;-67
2023/03/20 11:24:45;;;;;;;13.27;7.55;;;9.60;99.90;;;;;;5105636;27;20054;-68
2023/03/20 11:27:25;;;;;;;16.35;7.90;;;9.80;99.90;;;;;;5101473;27;20038;-69
2023/03/20 11:29:52;;;;;;;20.17;9.23;;;9.80;99.90;;;;;;5101683;27;20062;-67
2023/03/20 11:32:31;;;;;;;22.55;8.25;;;9.90;99.90;;;;;;5108729;27;20039;-66
2023/03/20 11:35:15;;;;;;;15.50;7.32;;;9.90;99.90;;;;;;5107670;27;20051;-67
2023/03/20 11:37:50;;;;;;;18.60;7.85;;;10.00;99.90;;;;;;5127973;27;20039;-68
2023/03/20 11:40:47;;;;;;;14.18;6.70;;;9.80;99.90;;;;;;5100627;27;20486;-69
2023/03/20 11:43:18;;;;;;;16.95;7.82;;;9.80;99.90;;;;;;5090007;27;20409;-68
2023/03/20 11:45:46;;;;;;;15.88;7.55;;;9.80;99.90;;;;;;5108814;27;20031;-67
2023/03/20 11:48:22;;;;;;;16.80;7.72;;;9.70;99.90;;;;;;5111672;27;20097;-68
2023/03/20 11:51:00;;;;;;;16.42;8.20;;;9.80;99.90;;;;;;5076334;27;20652;-67
2023/03/20 11:53:29;;;;;;;17.98;7.72;;;9.80;99.90;;;;;;5108416;27;20064;-68
2023/03/20 11:56:03;;;;;;;20.45;9.02;;;9.70;99.90;;;;;;5112820;27;20031;-68
2023/03/20 11:58:29;;;;;;;12.32;6.95;;;9.80;99.90;;;;;;5106911;27;20075;-67
2023/03/20 12:00:56;;;;;;;18.42;7.63;;;9.90;99.90;;;;;;5105712;27;20122;-66
2023/03/20 12:03:44;;;;;;;14.40;6.95;;;9.90;99.90;;;;;;5108364;27;20387;-69
2023/03/20 12:06:19;;;;;;;21.48;7.07;;;9.90;99.90;;;;;;5106494;27;20051;-69
2023/03/20 12:09:02;;;;;;;13.68;6.93;;;9.80;99.90;;;;;;5105731;27;20133;-69
2023/03/20 12:11:56;;;;;;;14.57;7.38;;;9.70;99.90;;;;;;5125313;27;20046;-65
2023/03/20 12:14:44;;;;;;;18.40;7.03;;;9.70;99.90;;;;;;5100991;27;20041;-67
2023/03/20 12:17:32;;;;;;;16.27;7.63;;;9.70;99.90;;;;;;5105308;28;20058;-67
2023/03/20 12:20:04;;;;;;;18.02;7.57;;;9.50;99.90;;;;;;5109836;28;20053;-70
2023/03/20 12:22:34;;;;;;;14.65;7.47;;;9.40;99.90;;;;;;5107826;27;20055;-67
2023/03/20 12:25:22;;;;;;;17.40;7.80;;;9.40;99.90;;;;;;5100980;28;20031;-68
2023/03/20 12:28:13;;;;;;;19.60;8.48;;;9.30;99.90;;;;;;5099360;28;20385;-68
2023/03/20 12:31:02;;;;;;;15.65;6.65;;;9.30;99.90;;;;;;5105560;28;20040;-67
2023/03/20 12:33:43;;;;;;;16.90;7.45;;;9.20;99.90;;;;;;5103070;27;20039;-67
2023/03/20 12:36:15;;;;;;;16.90;8.00;;;9.20;99.90;;;;;;5106582;28;20042;-67
2023/03/20 12:38:42;;;;;;;14.65;7.97;;;9.30;99.90;;;;;;5100443;27;20405;-67
2023/03/20 12:41:23;;;;;;;16.33;8.25;;;9.20;99.90;;;;;;5109632;28;20055;-68
2023/03/20 12:43:58;;;;;;;18.70;8.38;;;9.10;99.90;;;;;;5104903;27;20044;-66
2023/03/20 12:46:26;;;;;;;21.15;8.90;;;9.20;99.90;;;;;;5111118;28;20043;-66
2023/03/20 12:49:10;;;;;;;17.88;8.35;;;9.10;99.90;;;;;;5104480;28;20128;-68
2023/03/20 12:51:56;;;;;;;16.13;6.75;;;9.10;99.90;;;;;;5106747;28;20042;-67
2023/03/20 12:54:52;;;;;;;18.15;7.88;;;9.00;99.90;;;;;;5110765;28;20085;-67
2023/03/20 12:57:51;;;;;;;18.25;7.80;;;8.80;99.90;;;;;;5105483;28;20081;-66
2023/03/20 13:00:39;;;;;;;20.27;7.88;;;8.80;99.90;;;;;;5108520;28;20057;-67